Macachin, Argentina
Current Conditions -  °F | °C
As of 8:00 PM on Friday 19 Dec 2014 (Local Time) from SAZN Reporting Station
Broken Clouds Broken Clouds  
Wind Chill: 73°   Ceiling: 10000
Heat Index: 73°   Visibility: 6mi
Dew Point: 36°   Wind: 18mph
Humidity: 25%   Direction: 270°W
Pressure: 29.56"   Gusts: 36mph
Location:  37.15°S, 63.65°W
Report Text: SAZN 192300Z 27016G31KT 9999 SCT045 BKN100 23/02 Q1001
Loading
Personal Weather Stations






























Interactive Weather Map New forecast layout! Learn more

10-Day Weather Forecast

Advertisements
Track Severe Weather on mobile